AIRPORT_AIRPORT_METAR
METAR FOR LRCL
ADDS - METARS form results

(1524 UTC 18 August 2019)
Data provider http://aviationweather.gov/metar/data/
 
METAR text: LRCL 181500Z VRB01KT 9999 SCT067 27/11 Q1017
Conditions at: LRCL (CLUJ-NAPOCA/SOME, RO) observed 1500 UTC 18 August 2019
Temperature: 27.0°C (81°F)
Dewpoint: 11.0°C (52°F) [RH = 37%]
Pressure (altimeter): 30.03 inches Hg (1017.0 mb)
Winds: variable direction winds at 1 MPH (1 knots; 0.5 m/s)
Visibility: 6 or more miles (10+ km)
Ceiling: at least 12,000 feet AGL
Clouds: scattered clouds at 6700 feet AGL
Weather: no significant weather observed at this time

METAR text: LRCL 181430Z 05003KT 9999 FEW067 26/10 Q1017
Conditions at: LRCL (CLUJ-NAPOCA/SOME, RO) observed 1430 UTC 18 August 2019
Temperature: 26.0°C (79°F)
Dewpoint: 10.0°C (50°F) [RH = 37%]
Pressure (altimeter): 30.03 inches Hg (1017.0 mb)
Winds: from the NE (50 degrees) at 3 MPH (3 knots; 1.5 m/s)
Visibility: 6 or more miles (10+ km)
Ceiling: at least 12,000 feet AGL
Clouds: few clouds at 6700 feet AGL
Weather: no significant weather observed at this time

Forecast for: LRCL (CLUJ-NAPOCA/SOME, RO)
Text: TAF LRCL 181400Z 1815/1824 VRB04KT CAVOK
Forecast period: 1500 UTC 18 August 2019 to 0000 UTC 19 August 2019
Forecast type: FROM: standard forecast or significant change
Winds: variable direction winds at 5 MPH (4 knots; 2.1 m/s)
Visibility: 6 or more miles 10+ km)
Ceiling: unknown
Clouds: missing
Weather: NSW  (no significant weather)

 AIRPORT_AIRPORT_MAP

 AIRPORT_RUNWAY_INFO
AIRPORT_RUNWAY 07 AIRPORT_RUNWAY_LENGTH 6070 ft AIRPORT_RUNWAY_WIDTH 98 ft
AIRPORT_RUNWAY_ELEVATION 1036 ft AIRPORT_RUNWAY_THRESHOLD 0 ft AIRPORT_RUNWAY_HEADING 79
AIRPORT_RUNWAY 25 AIRPORT_RUNWAY_LENGTH 6070 ft AIRPORT_RUNWAY_WIDTH 98 ft
AIRPORT_RUNWAY_ELEVATION 1025 ft AIRPORT_RUNWAY_THRESHOLD 0 ft AIRPORT_RUNWAY_HEADING 259
AIRPORT_RUNWAY 08 AIRPORT_RUNWAY_LENGTH 0 ft AIRPORT_RUNWAY_WIDTH 0 ft
AIRPORT_RUNWAY_ELEVATION 1036 ft AIRPORT_RUNWAY_THRESHOLD 0 ft AIRPORT_RUNWAY_HEADING 0
AIRPORT_RUNWAY 26 AIRPORT_RUNWAY_LENGTH 0 ft AIRPORT_RUNWAY_WIDTH 0 ft
AIRPORT_RUNWAY_ELEVATION 1025 ft AIRPORT_RUNWAY_THRESHOLD 0 ft AIRPORT_RUNWAY_HEADING 0

 AIRPORT_AIRPORT_FREQUENCIES
AIRPORT_AIRPORT_NAVAIDS_TYPE APP AIRPORT_AIRPORT_NAVAIDS_NAME APP AIRPORT_AIRPORT_NAVAIDS_FREQ 125.1 MHZ
AIRPORT_AIRPORT_NAVAIDS_TYPE GCA AIRPORT_AIRPORT_NAVAIDS_NAME PRECISION AIRPORT_AIRPORT_NAVAIDS_FREQ 118.7 MHZ
AIRPORT_AIRPORT_NAVAIDS_TYPE TWR AIRPORT_AIRPORT_NAVAIDS_NAME TWR AIRPORT_AIRPORT_NAVAIDS_FREQ 134.4 MHZ

 AIRPORT_AIRPORT_NAVAIDS
AIRPORT_AIRPORT_NAVAIDS_TYPE VOR-DME AIRPORT_AIRPORT_NAVAIDS_NAME Cluj AIRPORT_AIRPORT_NAVAIDS_FREQ 111200 KHZ



Copyright © 2005-2019 - Virtuel Air Alsace - Tous droits réservés